createdAt,value
2023-02-11T00:00:15.516Z,42.47
2023-02-11T00:02:42.310Z,41.60
2023-02-11T00:05:09.403Z,44.27
2023-02-11T00:07:36.466Z,38.13
2023-02-11T00:10:04.650Z,46.10
2023-02-11T00:12:31.308Z,36.30
2023-02-11T00:14:58.379Z,45.30
2023-02-11T00:17:25.116Z,41.10
2023-02-11T00:19:52.609Z,46.20
2023-02-11T00:22:19.508Z,42.20
2023-02-11T00:24:46.337Z,45.63
2023-02-11T00:27:12.980Z,43.40
2023-02-11T00:29:40.078Z,39.73
2023-02-11T00:32:08.781Z,41.97
2023-02-11T00:34:36.471Z,39.33
2023-02-11T00:37:03.906Z,42.30
2023-02-11T00:39:31.471Z,42.60
2023-02-11T00:41:58.890Z,46.60
2023-02-11T00:44:25.935Z,45.90
2023-02-11T00:46:52.568Z,45.63
2023-02-11T00:49:19.301Z,47.50
2023-02-11T00:51:48.222Z,47.90
2023-02-11T00:54:14.999Z,38.83
2023-02-11T00:56:41.638Z,41.83
2023-02-11T00:59:09.098Z,41.97
2023-02-11T01:01:35.987Z,42.40
2023-02-11T01:04:02.690Z,44.03
2023-02-11T01:06:29.365Z,40.57
2023-02-11T01:08:56.006Z,38.87
2023-02-11T01:11:22.982Z,42.60
2023-02-11T01:13:50.638Z,38.53
2023-02-11T01:16:19.193Z,36.43
2023-02-11T01:18:46.643Z,38.93
2023-02-11T01:21:13.543Z,38.87
2023-02-11T01:23:40.182Z,40.80
2023-02-11T01:26:07.106Z,38.43
2023-02-11T01:28:33.907Z,38.30
2023-02-11T01:31:01.753Z,40.50
2023-02-11T01:33:28.714Z,49.13
2023-02-11T01:35:55.450Z,35.07
2023-02-11T01:38:24.958Z,41.93
2023-02-11T01:40:56.989Z,37.00
2023-02-11T01:43:25.192Z,40.70
2023-02-11T01:45:58.143Z,39.20
2023-02-11T01:48:34.516Z,36.93
2023-02-11T01:51:20.547Z,43.83
2023-02-11T01:54:06.777Z,42.07
2023-02-11T01:56:58.155Z,38.20
2023-02-11T01:59:34.209Z,38.97
2023-02-11T02:02:06.546Z,41.17
2023-02-11T02:04:38.717Z,48.40
2023-02-11T02:07:17.648Z,42.83
2023-02-11T02:09:49.738Z,45.80
2023-02-11T02:12:16.450Z,41.63
2023-02-11T02:14:43.179Z,50.00
2023-02-11T02:17:44.371Z,43.70
2023-02-11T02:20:34.670Z,40.00
2023-02-11T02:23:22.331Z,38.80
2023-02-11T02:26:35.232Z,40.40
2023-02-11T02:29:23.376Z,50.50
2023-02-11T02:32:10.742Z,44.60
2023-02-11T02:35:09.401Z,44.90
2023-02-11T02:38:05.072Z,40.40
2023-02-11T02:40:39.984Z,46.23
2023-02-11T02:43:08.968Z,44.17
2023-02-11T02:45:35.647Z,38.60
2023-02-11T02:48:02.420Z,40.20
2023-02-11T02:50:33.610Z,39.80
2023-02-11T02:53:11.767Z,43.93
2023-02-11T02:56:04.916Z,42.23
2023-02-11T02:58:56.589Z,43.40
2023-02-11T03:01:32.786Z,47.47
2023-02-11T03:04:09.062Z,44.37
2023-02-11T03:07:05.638Z,38.60
2023-02-11T03:09:42.498Z,41.63
2023-02-11T03:12:10.456Z,39.20
2023-02-11T03:14:38.670Z,40.97
2023-02-11T03:17:07.978Z,44.87
2023-02-11T03:19:40.853Z,42.83
2023-02-11T03:22:22.661Z,40.93
2023-02-11T03:24:49.594Z,50.80
2023-02-11T03:27:25.472Z,39.70
2023-02-11T03:30:05.159Z,41.10
2023-02-11T03:32:53.491Z,47.90
2023-02-11T03:35:22.245Z,42.93
2023-02-11T03:37:56.517Z,41.73
2023-02-11T03:40:31.911Z,40.23
2023-02-11T03:43:10.364Z,38.40
2023-02-11T03:45:38.382Z,42.57
2023-02-11T03:48:12.692Z,38.90
2023-02-11T03:50:41.050Z,51.07
2023-02-11T03:53:09.124Z,41.87
2023-02-11T03:55:39.576Z,39.23
2023-02-11T03:58:07.074Z,43.63
2023-02-11T04:00:36.660Z,43.00
2023-02-11T04:03:04.363Z,41.17
2023-02-11T04:05:31.520Z,44.60
2023-02-11T04:07:58.169Z,44.63
2023-02-11T04:10:25.810Z,47.37
2023-02-11T04:12:53.017Z,46.80
2023-02-11T04:15:19.859Z,48.30
2023-02-11T04:17:46.592Z,47.13
2023-02-11T04:20:13.328Z,42.20
2023-02-11T04:22:40.236Z,48.33
2023-02-11T04:25:08.115Z,41.97
2023-02-11T04:27:35.431Z,48.93
2023-02-11T04:30:02.278Z,49.27
2023-02-11T04:32:28.948Z,44.73
2023-02-11T04:34:55.609Z,49.43
2023-02-11T04:37:22.255Z,54.10
2023-02-11T04:39:48.910Z,51.47
2023-02-11T04:42:15.813Z,48.60
2023-02-11T04:44:42.492Z,48.83
2023-02-11T04:47:09.321Z,52.60
2023-02-11T04:49:36.042Z,51.90
2023-02-11T04:52:02.688Z,53.67
2023-02-11T04:54:29.353Z,50.83
2023-02-11T04:56:56.120Z,58.83
2023-02-11T04:59:22.762Z,59.23
2023-02-11T05:01:49.849Z,54.27
2023-02-11T05:04:17.259Z,60.83
2023-02-11T05:06:44.006Z,57.03
2023-02-11T05:09:12.116Z,57.33
2023-02-11T05:11:39.378Z,75.10
2023-02-11T05:14:08.933Z,60.17
2023-02-11T05:16:35.699Z,57.67
2023-02-11T05:19:02.509Z,65.40
2023-02-11T05:21:29.186Z,66.10
2023-02-11T05:23:55.839Z,69.17
2023-02-11T05:26:22.497Z,77.10
2023-02-11T05:28:49.181Z,69.80
2023-02-11T05:31:16.723Z,75.33
2023-02-11T05:33:43.480Z,71.23
2023-02-11T05:36:11.965Z,77.13
2023-02-11T05:38:39.056Z,81.77
2023-02-11T05:41:06.882Z,78.77
2023-02-11T05:43:35.308Z,72.93
2023-02-11T05:46:03.303Z,85.33
2023-02-11T05:48:30.755Z,90.30
2023-02-11T05:50:57.569Z,78.20
2023-02-11T05:53:24.222Z,80.33
2023-02-11T05:55:51.337Z,77.70
2023-02-11T05:58:18.237Z,71.50
2023-02-11T06:00:44.890Z,75.63
2023-02-11T06:03:11.560Z,75.40
2023-02-11T06:05:39.174Z,79.97
2023-02-11T06:08:05.839Z,76.33
2023-02-11T06:10:32.540Z,82.17
2023-02-11T06:12:59.194Z,84.17
2023-02-11T06:15:25.853Z,95.47
2023-02-11T06:17:52.513Z,85.13
2023-02-11T06:20:19.401Z,93.60
2023-02-11T06:22:46.418Z,89.87
2023-02-11T06:25:13.615Z,81.63
2023-02-11T06:27:40.543Z,87.60
2023-02-11T06:30:08.466Z,86.53
2023-02-11T06:32:43.940Z,103.50
2023-02-11T06:35:12.637Z,80.83
2023-02-11T06:37:40.194Z,84.73
2023-02-11T06:40:07.334Z,89.40
2023-02-11T06:42:35.995Z,91.57
2023-02-11T06:45:05.855Z,93.90
2023-02-11T06:47:32.578Z,87.40
2023-02-11T06:49:59.296Z,95.97
2023-02-11T06:52:25.977Z,101.77
2023-02-11T06:54:52.669Z,91.67
2023-02-11T06:57:19.382Z,91.80
2023-02-11T06:59:46.058Z,104.23
2023-02-11T07:02:12.842Z,102.60
2023-02-11T07:04:40.285Z,102.13
2023-02-11T07:07:07.045Z,106.07
2023-02-11T07:09:33.745Z,120.13
2023-02-11T07:12:00.371Z,117.10
2023-02-11T07:14:27.067Z,107.87
2023-02-11T07:16:53.798Z,119.43
2023-02-11T07:19:20.451Z,107.03
2023-02-11T07:21:48.580Z,121.37
2023-02-11T07:24:15.332Z,119.43
2023-02-11T07:26:42.020Z,125.13
2023-02-11T07:29:08.700Z,127.60
2023-02-11T07:31:35.542Z,126.47
2023-02-11T07:34:02.986Z,123.73
2023-02-11T07:36:31.836Z,121.97
2023-02-11T07:38:59.936Z,126.67
2023-02-11T07:41:27.092Z,121.63
2023-02-11T07:43:55.380Z,140.87
2023-02-11T07:46:25.533Z,134.97
2023-02-11T07:48:52.670Z,130.67
2023-02-11T07:51:20.683Z,134.77
2023-02-11T07:53:47.638Z,131.53
2023-02-11T07:56:16.399Z,163.23
2023-02-11T07:58:43.902Z,144.27
2023-02-11T08:01:13.717Z,147.50
2023-02-11T08:03:41.852Z,154.73
2023-02-11T08:06:14.623Z,205.80
2023-02-11T08:08:42.164Z,214.57
2023-02-11T08:11:20.714Z,263.67
2023-02-11T08:13:48.174Z,208.17
2023-02-11T08:16:35.298Z,279.00
2023-02-11T08:19:04.888Z,355.47
2023-02-11T08:21:32.003Z,183.27
2023-02-11T08:23:59.038Z,260.73
2023-02-11T08:26:28.864Z,336.37
2023-02-11T08:28:56.709Z,203.37
2023-02-11T08:31:29.503Z,259.03
2023-02-11T08:33:58.072Z,347.20
2023-02-11T08:36:30.039Z,290.50
2023-02-11T08:39:16.116Z,186.33
2023-02-11T08:41:46.229Z,291.03
2023-02-11T08:44:13.256Z,286.93
2023-02-11T08:46:40.110Z,426.57
2023-02-11T08:49:06.872Z,290.77
2023-02-11T08:51:33.809Z,230.63
2023-02-11T08:54:01.318Z,203.57
2023-02-11T08:56:28.807Z,342.93
2023-02-11T08:58:55.550Z,223.77
2023-02-11T09:01:25.025Z,223.00
2023-02-11T09:03:52.560Z,232.87
2023-02-11T09:06:20.019Z,257.80
2023-02-11T09:08:49.341Z,230.77
2023-02-11T09:11:17.734Z,493.50
2023-02-11T09:13:45.137Z,523.57
2023-02-11T09:16:23.693Z,521.57
2023-02-11T09:18:50.850Z,233.83
2023-02-11T09:21:19.296Z,360.93
2023-02-11T09:23:47.679Z,500.00
2023-02-11T09:26:20.036Z,574.47
2023-02-11T09:28:47.726Z,501.57
2023-02-11T09:31:26.232Z,224.87
2023-02-11T09:33:55.644Z,310.30
2023-02-11T09:36:24.728Z,554.87
2023-02-11T09:38:52.367Z,345.57
2023-02-11T09:41:58.876Z,794.50
2023-02-11T09:44:29.366Z,241.03
2023-02-11T09:47:22.523Z,286.20
2023-02-11T09:50:14.343Z,665.80
2023-02-11T09:52:43.951Z,308.60
2023-02-11T09:55:34.216Z,396.50
2023-02-11T09:58:05.170Z,362.57
2023-02-11T10:00:38.011Z,262.77
2023-02-11T10:03:12.638Z,267.33
2023-02-11T10:06:07.267Z,426.33
2023-02-11T10:08:45.672Z,409.20
2023-02-11T10:11:32.043Z,416.03
2023-02-11T10:14:26.481Z,221.40
2023-02-11T10:17:11.096Z,302.97
2023-02-11T10:19:58.854Z,470.27
2023-02-11T10:22:35.030Z,304.63
2023-02-11T10:25:16.901Z,358.83
2023-02-11T10:27:43.761Z,309.40
2023-02-11T10:30:39.710Z,395.40
2023-02-11T10:33:27.906Z,253.43
2023-02-11T10:35:54.641Z,205.27
2023-02-11T10:38:21.533Z,323.50
2023-02-11T10:40:48.265Z,311.87
2023-02-11T10:43:18.308Z,301.90
2023-02-11T10:45:49.745Z,303.93
2023-02-11T10:48:36.024Z,560.87
2023-02-11T10:51:19.158Z,429.53
2023-02-11T10:53:47.411Z,363.80
2023-02-11T10:56:27.215Z,292.07
2023-02-11T10:59:04.471Z,652.87
2023-02-11T11:01:45.474Z,205.77
2023-02-11T11:04:30.462Z,355.87
2023-02-11T11:07:17.869Z,617.57
2023-02-11T11:09:51.558Z,333.07
2023-02-11T11:12:42.046Z,456.80
2023-02-11T11:15:30.249Z,292.50
2023-02-11T11:18:23.008Z,394.57
2023-02-11T11:21:08.516Z,335.43
2023-02-11T11:23:37.521Z,307.70
2023-02-11T11:26:15.769Z,246.30
2023-02-11T11:28:46.490Z,246.10
2023-02-11T11:31:35.621Z,259.80
2023-02-11T11:34:30.074Z,241.63
2023-02-11T11:36:59.384Z,263.53
2023-02-11T11:39:34.838Z,225.67
2023-02-11T11:42:05.441Z,212.63
2023-02-11T11:44:37.356Z,230.20
2023-02-11T11:47:20.412Z,218.77
2023-02-11T11:50:22.355Z,226.57
2023-02-11T11:53:01.396Z,216.23
2023-02-11T11:55:34.778Z,217.83
2023-02-11T11:58:01.663Z,222.60
2023-02-11T12:00:35.995Z,197.77
2023-02-11T12:03:21.328Z,209.87
2023-02-11T12:06:50.998Z,216.37
2023-02-11T12:09:52.802Z,202.37
2023-02-11T12:12:39.007Z,199.43
2023-02-11T12:15:17.760Z,199.20
2023-02-11T12:17:56.506Z,207.30
2023-02-11T12:20:29.052Z,218.60
2023-02-11T12:23:23.233Z,192.03
2023-02-11T12:26:05.584Z,213.57
2023-02-11T12:29:11.250Z,120.37
2023-02-11T12:31:49.242Z,186.37
2023-02-11T12:34:43.384Z,177.40
2023-02-11T12:37:28.619Z,165.87
2023-02-11T12:40:16.710Z,196.57
2023-02-11T12:43:16.377Z,177.80
2023-02-11T12:45:49.436Z,194.73
2023-02-11T12:48:30.758Z,211.00
2023-02-11T12:51:15.618Z,206.77
2023-02-11T12:54:10.771Z,195.97
2023-02-11T12:56:55.306Z,201.17
2023-02-11T12:59:59.649Z,212.07
2023-02-11T13:02:46.676Z,227.73
2023-02-11T13:05:40.363Z,197.73
2023-02-11T13:08:25.858Z,243.63
2023-02-11T13:10:58.423Z,208.23
2023-02-11T13:13:37.068Z,225.50
2023-02-11T13:16:17.049Z,219.13
2023-02-11T13:19:38.001Z,228.20
2023-02-11T13:22:16.686Z,209.73
2023-02-11T13:24:58.167Z,193.73
2023-02-11T13:28:03.292Z,217.93
2023-02-11T13:30:34.645Z,170.97
2023-02-11T13:33:01.378Z,200.10
2023-02-11T13:35:36.651Z,220.53
2023-02-11T13:38:19.871Z,215.47
2023-02-11T13:40:58.407Z,190.60
2023-02-11T13:43:30.427Z,186.57
2023-02-11T13:46:05.870Z,193.70
2023-02-11T13:48:38.606Z,189.47
2023-02-11T13:51:08.663Z,194.10
2023-02-11T13:53:54.518Z,201.50
2023-02-11T13:56:31.232Z,223.67
2023-02-11T13:59:02.164Z,208.60
2023-02-11T14:02:20.922Z,203.17
2023-02-11T14:05:41.610Z,187.37
2023-02-11T14:08:29.542Z,172.73
2023-02-11T14:11:12.863Z,197.30
2023-02-11T14:13:48.807Z,200.80
2023-02-11T14:16:31.643Z,181.03
2023-02-11T14:19:05.960Z,179.83
2023-02-11T14:21:36.353Z,184.80
2023-02-11T14:24:04.738Z,209.03
2023-02-11T14:26:34.778Z,185.10
2023-02-11T14:29:39.257Z,232.23
2023-02-11T14:32:32.248Z,200.90
2023-02-11T14:35:15.270Z,174.13
2023-02-11T14:37:55.618Z,181.90
2023-02-11T14:40:35.358Z,169.60
2023-02-11T14:43:19.816Z,210.10
2023-02-11T14:45:51.757Z,206.27
2023-02-11T14:48:20.413Z,173.60
2023-02-11T14:50:51.756Z,173.23
2023-02-11T14:53:23.769Z,201.77
2023-02-11T14:55:52.495Z,208.77
2023-02-11T14:58:23.089Z,186.40
2023-02-11T15:01:22.448Z,201.23
2023-02-11T15:03:49.885Z,197.60
2023-02-11T15:06:19.802Z,193.23
2023-02-11T15:08:53.519Z,202.63
2023-02-11T15:11:22.484Z,183.00
2023-02-11T15:13:50.228Z,183.33
2023-02-11T15:16:21.591Z,189.07
2023-02-11T15:18:51.774Z,192.10
2023-02-11T15:21:23.924Z,189.47
2023-02-11T15:24:06.171Z,192.13
2023-02-11T15:26:33.412Z,200.67
2023-02-11T15:29:00.593Z,176.07
2023-02-11T15:31:28.378Z,196.43
2023-02-11T15:33:55.449Z,185.30
2023-02-11T15:36:28.621Z,167.50
2023-02-11T15:39:31.360Z,187.87
2023-02-11T15:42:26.841Z,213.80
2023-02-11T15:45:28.970Z,200.90
2023-02-11T15:48:07.620Z,175.93
2023-02-11T15:50:37.061Z,175.00
2023-02-11T15:53:21.856Z,172.70
2023-02-11T15:55:56.424Z,202.27
2023-02-11T15:58:23.634Z,195.40
2023-02-11T16:00:56.504Z,194.27
2023-02-11T16:03:25.146Z,199.93
2023-02-11T16:05:51.972Z,199.27
2023-02-11T16:08:24.787Z,175.10
2023-02-11T16:10:58.481Z,180.40
2023-02-11T16:13:28.037Z,179.43
2023-02-11T16:16:04.554Z,170.87
2023-02-11T16:18:40.440Z,177.43
2023-02-11T16:21:16.676Z,160.10
2023-02-11T16:23:50.348Z,179.43
2023-02-11T16:26:40.824Z,185.50
2023-02-11T16:29:16.513Z,162.57
2023-02-11T16:31:46.352Z,176.57
2023-02-11T16:34:22.146Z,173.90
2023-02-11T16:36:50.009Z,181.00
2023-02-11T16:39:17.916Z,189.80
2023-02-11T16:41:45.209Z,175.77
2023-02-11T16:44:11.886Z,177.73
2023-02-11T16:46:38.939Z,156.70
2023-02-11T16:49:20.306Z,168.83
2023-02-11T16:51:53.010Z,169.43
2023-02-11T16:54:20.304Z,153.00
2023-02-11T16:56:46.970Z,159.27
2023-02-11T16:59:13.684Z,148.33
2023-02-11T17:01:42.231Z,155.57
2023-02-11T17:04:28.495Z,156.90
2023-02-11T17:06:57.965Z,163.73
2023-02-11T17:09:30.481Z,139.57
2023-02-11T17:11:57.866Z,153.60
2023-02-11T17:14:24.631Z,156.00
2023-02-11T17:16:51.541Z,155.97
2023-02-11T17:19:21.037Z,174.67
2023-02-11T17:21:49.576Z,136.77
2023-02-11T17:24:17.377Z,137.93
2023-02-11T17:26:45.728Z,132.70
2023-02-11T17:29:18.338Z,143.73
2023-02-11T17:31:45.346Z,134.10
2023-02-11T17:34:12.537Z,119.53
2023-02-11T17:36:41.304Z,125.43
2023-02-11T17:39:08.551Z,132.57
2023-02-11T17:41:38.772Z,129.80
2023-02-11T17:44:06.701Z,138.30
2023-02-11T17:46:34.688Z,135.97
2023-02-11T17:49:02.718Z,139.87
2023-02-11T17:51:32.626Z,135.23
2023-02-11T17:54:01.556Z,134.63
2023-02-11T17:56:30.714Z,131.87
2023-02-11T17:58:57.371Z,139.03
2023-02-11T18:01:27.332Z,133.43
2023-02-11T18:03:54.004Z,159.80
2023-02-11T18:06:21.667Z,135.83
2023-02-11T18:08:48.466Z,127.73
2023-02-11T18:11:16.296Z,138.87
2023-02-11T18:13:43.875Z,128.60
2023-02-11T18:16:15.658Z,150.87
2023-02-11T18:18:43.426Z,157.97
2023-02-11T18:21:15.071Z,164.37
2023-02-11T18:23:42.413Z,160.17
2023-02-11T18:26:11.253Z,140.63
2023-02-11T18:28:38.857Z,157.00
2023-02-11T18:31:07.269Z,137.10
2023-02-11T18:33:34.757Z,160.73
2023-02-11T18:36:09.154Z,158.23
2023-02-11T18:38:36.124Z,146.37
2023-02-11T18:41:03.994Z,148.43
2023-02-11T18:43:31.717Z,175.40
2023-02-11T18:45:58.541Z,158.93
2023-02-11T18:48:28.413Z,160.03
2023-02-11T18:50:55.656Z,138.00
2023-02-11T18:53:23.226Z,162.63
2023-02-11T18:55:50.528Z,147.87
2023-02-11T18:58:17.774Z,137.73
2023-02-11T19:00:47.168Z,175.90
2023-02-11T19:03:14.157Z,146.17
2023-02-11T19:05:42.629Z,166.93
2023-02-11T19:08:09.752Z,130.83
2023-02-11T19:10:49.333Z,140.93
2023-02-11T19:13:15.988Z,150.87
2023-02-11T19:15:46.955Z,140.63
2023-02-11T19:18:15.560Z,151.97
2023-02-11T19:20:43.382Z,140.07
2023-02-11T19:23:10.340Z,140.10
2023-02-11T19:25:37.563Z,145.87
2023-02-11T19:28:04.393Z,165.23
2023-02-11T19:30:31.696Z,137.23
2023-02-11T19:32:58.463Z,152.87
2023-02-11T19:35:25.376Z,141.13
2023-02-11T19:37:52.156Z,139.83
2023-02-11T19:40:21.134Z,147.47
2023-02-11T19:42:47.858Z,162.43
2023-02-11T19:45:14.796Z,142.27
2023-02-11T19:47:41.541Z,137.03
2023-02-11T19:50:08.661Z,141.80
2023-02-11T19:52:40.088Z,177.33
2023-02-11T19:55:07.387Z,170.43
2023-02-11T19:57:34.051Z,171.67
2023-02-11T20:00:01.313Z,138.00
2023-02-11T20:02:29.165Z,139.97
2023-02-11T20:04:55.857Z,148.33
2023-02-11T20:07:22.660Z,152.47
2023-02-11T20:09:49.316Z,205.00
2023-02-11T20:12:16.155Z,151.27
2023-02-11T20:14:42.956Z,167.73
2023-02-11T20:17:09.596Z,145.43
2023-02-11T20:19:36.244Z,137.40
2023-02-11T20:22:03.248Z,123.10
2023-02-11T20:24:29.910Z,135.00
2023-02-11T20:26:56.710Z,150.63
2023-02-11T20:29:24.635Z,132.57
2023-02-11T20:31:51.544Z,125.43
2023-02-11T20:34:18.678Z,134.37
2023-02-11T20:36:51.934Z,130.03
2023-02-11T20:39:21.587Z,119.60
2023-02-11T20:41:49.192Z,126.70
2023-02-11T20:44:16.409Z,123.50
2023-02-11T20:46:48.052Z,122.13
2023-02-11T20:49:18.667Z,118.73
2023-02-11T20:51:45.484Z,127.10
2023-02-11T20:54:15.128Z,120.50
2023-02-11T20:56:42.146Z,128.93
2023-02-11T20:59:09.401Z,117.07
2023-02-11T21:01:40.494Z,121.67
2023-02-11T21:04:11.612Z,119.63
2023-02-11T21:06:44.897Z,116.47
2023-02-11T21:09:14.379Z,123.23
2023-02-11T21:11:41.654Z,137.53
2023-02-11T21:14:09.820Z,135.53
2023-02-11T21:16:36.515Z,142.30
2023-02-11T21:19:03.264Z,142.57
2023-02-11T21:21:30.294Z,126.30
2023-02-11T21:23:58.368Z,135.67
2023-02-11T21:26:25.523Z,141.17
2023-02-11T21:28:52.433Z,145.83
2023-02-11T21:31:25.342Z,130.20
2023-02-11T21:33:54.392Z,148.60
2023-02-11T21:36:22.725Z,136.80
2023-02-11T21:38:49.968Z,149.30
2023-02-11T21:41:17.820Z,148.60
2023-02-11T21:43:44.740Z,144.17
2023-02-11T21:46:14.412Z,151.60
2023-02-11T21:48:41.756Z,154.83
2023-02-11T21:51:13.222Z,144.77
2023-02-11T21:53:40.024Z,161.67
2023-02-11T21:56:10.204Z,141.00
2023-02-11T21:58:37.718Z,141.63
2023-02-11T22:01:19.477Z,155.40
2023-02-11T22:03:46.362Z,151.80
2023-02-11T22:06:22.423Z,152.53
2023-02-11T22:08:53.105Z,162.43
2023-02-11T22:11:20.611Z,156.13
2023-02-11T22:13:47.576Z,163.50
2023-02-11T22:16:16.507Z,176.97
2023-02-11T22:18:46.205Z,197.33
2023-02-11T22:21:18.770Z,196.50
2023-02-11T22:23:46.176Z,164.33
2023-02-11T22:26:16.166Z,170.00
2023-02-11T22:28:43.665Z,170.97
2023-02-11T22:31:19.380Z,160.63
2023-02-11T22:33:46.535Z,161.33
2023-02-11T22:36:25.436Z,181.63
2023-02-11T22:38:52.686Z,154.93
2023-02-11T22:41:20.309Z,155.23
2023-02-11T22:43:47.552Z,159.63
2023-02-11T22:46:17.600Z,187.13
2023-02-11T22:48:44.685Z,161.90
2023-02-11T22:51:20.527Z,173.30
2023-02-11T22:53:58.279Z,162.20
2023-02-11T22:56:26.466Z,174.20
2023-02-11T22:58:56.123Z,175.07
2023-02-11T23:01:23.026Z,169.20
2023-02-11T23:03:49.756Z,158.17
2023-02-11T23:06:17.154Z,164.43
2023-02-11T23:08:44.473Z,180.07
2023-02-11T23:11:20.177Z,170.57
2023-02-11T23:13:48.071Z,177.40
2023-02-11T23:16:21.930Z,170.60
2023-02-11T23:18:49.690Z,177.23
2023-02-11T23:21:22.290Z,141.67
2023-02-11T23:23:54.254Z,173.83
2023-02-11T23:26:20.973Z,166.77
2023-02-11T23:28:47.996Z,150.17
2023-02-11T23:31:16.032Z,153.00
2023-02-11T23:33:43.123Z,164.93
2023-02-11T23:36:10.282Z,156.00
2023-02-11T23:38:37.563Z,162.70
2023-02-11T23:41:04.612Z,175.77
2023-02-11T23:43:31.413Z,154.27
2023-02-11T23:45:58.353Z,164.47
2023-02-11T23:48:25.893Z,172.27
2023-02-11T23:50:52.619Z,173.50
2023-02-11T23:53:19.273Z,159.60
2023-02-11T23:55:46.829Z,163.87
2023-02-11T23:58:14.646Z,151.83
